createdAt,value
2023-05-13T00:01:03.759Z,45.13
2023-05-13T00:11:10.701Z,45.05
2023-05-13T00:21:18.306Z,44.99
2023-05-13T00:31:25.407Z,44.89
2023-05-13T00:41:32.522Z,44.79
2023-05-13T00:51:39.658Z,44.75
2023-05-13T01:01:46.810Z,44.76
2023-05-13T01:11:54.195Z,44.75
2023-05-13T01:22:00.873Z,44.73
2023-05-13T01:32:07.855Z,44.71
2023-05-13T01:42:14.915Z,44.66
2023-05-13T01:52:22.430Z,44.64
2023-05-13T02:02:29.694Z,44.67
2023-05-13T02:12:37.021Z,44.73
2023-05-13T02:22:43.959Z,44.73
2023-05-13T02:32:50.892Z,44.66
2023-05-13T02:42:58.061Z,44.57
2023-05-13T02:53:05.022Z,44.57
2023-05-13T03:03:12.191Z,44.59
2023-05-13T03:13:18.906Z,44.61
2023-05-13T03:23:26.228Z,44.56
2023-05-13T03:33:33.400Z,44.56
2023-05-13T03:43:40.500Z,44.48
2023-05-13T03:53:47.477Z,44.39
2023-05-13T04:03:54.813Z,44.40
2023-05-13T04:14:01.344Z,44.51
2023-05-13T04:24:08.702Z,44.55
2023-05-13T04:34:15.630Z,44.54
2023-05-13T04:44:22.595Z,44.42
2023-05-13T04:54:29.563Z,44.63
2023-05-13T05:04:36.708Z,45.37
2023-05-13T05:14:43.772Z,46.06
2023-05-13T05:24:50.694Z,46.28
2023-05-13T05:34:57.892Z,45.99
2023-05-13T05:45:05.845Z,45.65
2023-05-13T05:55:13.496Z,45.42
2023-05-13T06:05:21.292Z,45.10
2023-05-13T06:15:27.954Z,44.40
2023-05-13T06:25:34.917Z,44.12
2023-05-13T06:35:42.438Z,43.93
2023-05-13T06:45:48.918Z,43.14
2023-05-13T06:55:56.374Z,42.50
2023-05-13T07:06:03.145Z,42.28
2023-05-13T07:16:10.628Z,42.13
2023-05-13T07:26:17.507Z,42.00
2023-05-13T07:36:24.453Z,41.78
2023-05-13T07:46:31.752Z,41.53
2023-05-13T07:56:39.202Z,41.47
2023-05-13T08:06:46.531Z,41.32
2023-05-13T08:16:54.038Z,41.25
2023-05-13T08:27:01.614Z,41.35
2023-05-13T08:37:08.710Z,41.50
2023-05-13T08:47:15.389Z,41.65
2023-05-13T08:57:22.747Z,41.84
2023-05-13T09:07:30.093Z,41.93
2023-05-13T09:17:36.861Z,42.17
2023-05-13T09:27:44.217Z,42.30
2023-05-13T09:37:51.445Z,42.21
2023-05-13T09:47:58.954Z,42.51
2023-05-13T09:58:06.787Z,42.64
2023-05-13T10:08:14.109Z,42.67
2023-05-13T10:18:21.087Z,42.79
2023-05-13T10:28:28.130Z,42.98
2023-05-13T10:38:35.305Z,42.77
2023-05-13T10:48:42.255Z,42.76
2023-05-13T10:58:49.821Z,42.90
2023-05-13T11:08:57.053Z,43.03
2023-05-13T11:19:04.405Z,43.06
2023-05-13T11:29:11.436Z,43.12
2023-05-13T11:39:18.444Z,43.12
2023-05-13T11:49:25.741Z,43.25
2023-05-13T11:59:41.673Z,43.32
2023-05-13T12:09:44.620Z,43.42
2023-05-13T12:19:51.675Z,43.27
2023-05-13T12:29:58.821Z,43.40
2023-05-13T12:40:05.853Z,43.32
2023-05-13T12:50:13.038Z,42.94
2023-05-13T13:00:20.480Z,43.28
2023-05-13T13:10:27.776Z,43.36
2023-05-13T13:20:34.817Z,43.21
2023-05-13T13:30:41.976Z,43.11
2023-05-13T13:40:49.097Z,43.12
2023-05-13T13:50:56.164Z,43.10
2023-05-13T14:01:02.839Z,42.89
2023-05-13T14:11:10.334Z,42.92
2023-05-13T14:21:17.173Z,42.93
2023-05-13T14:31:24.039Z,42.95
2023-05-13T14:41:31.502Z,42.80
2023-05-13T14:51:39.119Z,42.80
2023-05-13T15:01:45.751Z,42.83
2023-05-13T15:11:53.645Z,42.86
2023-05-13T15:22:00.511Z,42.93
2023-05-13T15:32:07.913Z,42.94
2023-05-13T15:42:14.878Z,42.91
2023-05-13T15:52:21.885Z,42.86
2023-05-13T16:02:28.890Z,42.80
2023-05-13T16:12:36.496Z,42.90
2023-05-13T16:22:43.595Z,42.94
2023-05-13T16:32:51.109Z,43.14
2023-05-13T16:43:01.023Z,43.28
2023-05-13T16:53:09.847Z,43.47
2023-05-13T17:03:16.984Z,43.65
2023-05-13T17:13:24.174Z,43.71
2023-05-13T17:23:30.952Z,43.85
2023-05-13T17:33:38.145Z,43.92
2023-05-13T17:43:44.814Z,43.93
2023-05-13T17:53:52.208Z,44.05
2023-05-13T18:03:59.256Z,44.28
2023-05-13T18:14:07.105Z,45.49
2023-05-13T18:24:14.185Z,46.53
2023-05-13T18:34:21.294Z,47.18
2023-05-13T18:44:28.715Z,47.65
2023-05-13T18:54:35.371Z,48.10
2023-05-13T19:04:42.528Z,48.64
2023-05-13T19:14:49.684Z,49.07
2023-05-13T19:24:56.673Z,49.48
2023-05-13T19:35:03.689Z,49.61
2023-05-13T19:45:10.745Z,49.72
2023-05-13T19:55:18.357Z,49.79
2023-05-13T20:05:25.792Z,49.77
2023-05-13T20:15:33.068Z,49.84
2023-05-13T20:25:39.706Z,49.88
2023-05-13T20:35:47.071Z,49.81
2023-05-13T20:45:53.866Z,49.74
2023-05-13T20:56:00.920Z,49.65
2023-05-13T21:06:07.627Z,49.59
2023-05-13T21:16:15.169Z,49.54
2023-05-13T21:26:23.001Z,49.49
2023-05-13T21:36:30.128Z,49.32
2023-05-13T21:46:37.503Z,49.26
2023-05-13T21:56:45.071Z,49.16
2023-05-13T22:06:52.497Z,48.95
2023-05-13T22:17:09.309Z,48.71
2023-05-13T22:27:12.241Z,48.40
2023-05-13T22:37:19.161Z,48.01
2023-05-13T22:47:26.123Z,47.70
2023-05-13T22:57:33.224Z,47.46
2023-05-13T23:07:40.796Z,47.35
2023-05-13T23:17:47.660Z,47.25
2023-05-13T23:27:54.656Z,47.10
2023-05-13T23:38:01.755Z,46.96
2023-05-13T23:48:08.664Z,46.79
2023-05-13T23:58:15.630Z,46.64
